createdAt,value
2023-03-23T16:01:45.275Z,15.70
2023-03-23T16:06:51.448Z,15.60
2023-03-23T16:11:56.370Z,15.50
2023-03-23T16:17:05.596Z,15.50
2023-03-23T16:22:11.398Z,15.50
2023-03-23T16:27:16.192Z,15.50
2023-03-23T16:32:19.474Z,15.40
2023-03-23T16:37:22.984Z,15.30
2023-03-23T16:42:27.609Z,15.20
2023-03-23T16:47:31.156Z,15.00
2023-03-23T16:52:35.702Z,14.90
2023-03-23T16:57:51.597Z,14.90
2023-03-23T17:02:58.313Z,14.80
2023-03-23T17:08:03.563Z,14.80
2023-03-23T17:13:11.125Z,14.70
2023-03-23T17:18:19.289Z,14.60
2023-03-23T17:23:23.145Z,14.50
2023-03-23T17:28:27.866Z,14.50
2023-03-23T17:33:31.097Z,14.40
2023-03-23T17:38:34.375Z,14.40
2023-03-23T17:43:40.663Z,14.30
2023-03-23T17:48:44.160Z,14.40
2023-03-23T17:53:47.792Z,14.20
2023-03-23T17:58:52.382Z,14.10
2023-03-23T18:03:55.731Z,14.00
2023-03-23T18:08:59.446Z,13.90
2023-03-23T18:14:04.645Z,13.80
2023-03-23T18:19:15.035Z,13.80
2023-03-23T18:24:19.753Z,13.80
2023-03-23T18:29:25.427Z,13.80
2023-03-23T18:34:28.834Z,13.80
2023-03-23T18:39:34.310Z,13.80
2023-03-23T18:44:39.075Z,13.70
2023-03-23T18:49:46.126Z,13.70
2023-03-23T18:54:49.638Z,13.70
2023-03-23T18:59:55.674Z,13.60
2023-03-23T19:05:03.219Z,13.50
2023-03-23T19:10:07.042Z,13.50
2023-03-23T19:15:11.872Z,13.50
2023-03-23T19:20:23.629Z,13.50
2023-03-23T19:25:40.678Z,13.50
2023-03-23T19:30:49.616Z,13.60
2023-03-23T19:36:05.762Z,13.60
2023-03-23T19:41:13.295Z,13.60
2023-03-23T19:46:18.521Z,13.80
2023-03-23T19:51:22.900Z,13.80
2023-03-23T19:56:37.319Z,13.80
2023-03-23T20:01:49.826Z,13.80
2023-03-23T20:06:53.789Z,13.80
2023-03-23T20:11:57.499Z,13.70
2023-03-23T20:17:03.068Z,13.60
2023-03-23T20:22:07.515Z,13.60
2023-03-23T20:27:11.482Z,13.50
2023-03-23T20:32:16.693Z,13.40
2023-03-23T20:37:20.980Z,13.40
2023-03-23T20:42:24.653Z,13.30
2023-03-23T20:47:29.861Z,13.30
2023-03-23T20:52:33.323Z,13.30
2023-03-23T20:57:38.310Z,13.20
2023-03-23T21:02:44.695Z,13.30
2023-03-23T21:07:49.576Z,13.20
2023-03-23T21:12:54.093Z,13.00
2023-03-23T21:17:59.826Z,12.90
2023-03-23T21:23:10.977Z,12.80
2023-03-23T21:28:20.597Z,12.70
2023-03-23T21:33:25.458Z,12.70
2023-03-23T21:38:29.525Z,12.70
2023-03-23T21:43:33.230Z,12.60
2023-03-23T21:48:38.763Z,12.70
2023-03-23T21:53:43.801Z,12.60
2023-03-23T21:58:47.137Z,12.60
2023-03-23T22:03:52.841Z,12.50
2023-03-23T22:08:56.274Z,12.50
2023-03-23T22:14:00.365Z,12.60
2023-03-23T22:19:05.328Z,12.80
2023-03-23T22:24:08.783Z,12.80
2023-03-23T22:29:16.947Z,12.60
2023-03-23T22:34:21.987Z,12.40
2023-03-23T22:39:25.785Z,12.30
2023-03-23T22:44:29.315Z,12.20
2023-03-23T22:49:33.936Z,12.00
2023-03-23T22:54:37.106Z,11.80
2023-03-23T22:59:40.969Z,11.70
2023-03-23T23:04:45.649Z,11.60
2023-03-23T23:09:49.217Z,11.70
2023-03-23T23:14:52.553Z,11.70
2023-03-23T23:19:57.528Z,11.70
2023-03-23T23:25:01.338Z,11.80
2023-03-23T23:30:06.698Z,11.80
2023-03-23T23:35:12.700Z,11.80
2023-03-23T23:40:16.639Z,12.20
2023-03-23T23:45:20.710Z,12.40
2023-03-23T23:50:25.588Z,12.40
2023-03-23T23:55:29.721Z,12.30
